Date,TemperatureHighF,TemperatureAvgF,TemperatureLowF,DewpointHighF,DewpointAvgF,DewpointLowF,HumidityHigh,HumidityAvg,HumidityLow,PressureMaxIn,PressureMinIn,WindSpeedMaxMPH,WindSpeedAvgMPH,GustSpeedMaxMPH,PrecipitationSumIn
2013-1-1,48.4,42.7,37.4,44.7,33.3,23.6,87,70,57,29.74,29.47,0,0,0,0.00
2013-1-2,43.5,38.1,33.3,31.6,24.4,22.5,74,58,47,29.80,29.71,0,0,0,0.00
2013-1-3,48.9,39.9,30.6,28.2,24.1,21.6,73,55,37,29.91,29.77,0,0,0,0.00
2013-1-4,51.6,46.7,42.1,35.6,28.4,25.7,60,49,38,29.97,29.83,0,0,0,0.00
2013-1-5,53.8,46.5,40.1,36.8,33.6,30.9,78,61,47,29.83,29.65,0,0,0,0.00
2013-1-6,55.9,43.7,35.1,31.1,25.0,20.9,74,51,27,29.85,29.74,0,0,0,0.00
2013-1-7,55.9,43.7,30.7,31.7,26.2,19.8,69,51,35,29.80,29.53,0,0,0,0.00
2013-1-8,51.8,49.0,47.1,49.4,40.5,29.3,96,74,48,29.56,29.41,0,0,0,0.98
2013-1-9,57.4,54.3,48.9,56.8,53.7,47.8,98,98,96,29.56,29.38,0,0,0,1.06
2013-1-10,59.5,55.7,50.7,56.8,48.9,41.4,98,79,52,29.44,29.35,0,0,0,0.04
2013-1-11,69.8,59.5,48.7,61.9,47.7,41.0,90,67,42,29.38,29.21,0,0,0,0.00
2013-1-12,65.8,55.6,37.9,64.6,50.0,26.5,97,82,57,29.41,29.15,0,0,0,0.08
2013-1-13,43.5,37.4,33.4,26.5,19.0,14.2,64,47,38,29.74,29.41,0,0,0,0.00
2013-1-14,46.0,37.3,30.6,24.5,17.0,12.1,56,44,34,29.80,29.68,0,0,0,0.00
2013-1-15,39.7,36.6,32.2,27.4,22.1,15.4,78,56,41,29.68,29.62,0,0,0,0.00
2013-1-16,48.7,38.7,29.7,23.9,17.2,14.7,55,43,28,29.77,29.62,0,0,0,0.00
2013-1-17,59.5,45.8,34.3,29.8,26.0,22.0,65,47,28,29.94,29.71,0,0,0,0.00
2013-1-18,62.1,47.6,34.0,36.5,28.3,24.5,74,50,28,29.94,29.71,0,0,0,0.00
2013-1-19,66.4,53.1,43.2,41.2,37.0,29.7,76,56,35,29.71,29.59,0,0,0,0.00
2013-1-20,68.4,52.3,39.7,44.5,36.0,31.3,82,57,27,29.65,29.50,0,0,0,0.00
2013-1-21,55.8,47.5,41.4,40.2,27.6,20.2,80,47,35,29.77,29.56,0,0,0,0.00
2013-1-22,65.5,51.4,39.0,41.8,33.7,23.8,69,51,39,29.77,29.62,0,0,0,0.00
2013-1-23,73.6,61.3,50.9,53.8,48.4,41.5,84,64,42,29.71,29.56,0,0,0,0.00
2013-1-24,77.7,64.3,54.7,56.8,50.4,40.9,91,63,39,29.62,29.47,0,0,0,0.00
2013-1-25,57.6,51.6,48.7,48.8,39.7,33.8,89,64,52,29.65,29.47,0,0,0,0.00
2013-1-26,56.3,51.8,47.7,50.0,43.6,33.9,93,74,53,29.68,29.53,0,0,0,0.00
2013-1-27,75.2,63.7,51.6,62.3,56.0,49.8,98,78,47,29.53,29.35,0,0,0,0.00
2013-1-28,78.1,71.8,66.9,64.2,61.5,56.1,88,71,50,29.44,29.29,0,0,0,0.00
2013-1-29,80.1,68.0,56.8,65.6,55.8,24.7,82,67,29,29.29,28.88,0,0,0,0.39
2013-1-30,56.7,49.0,40.3,32.5,23.0,16.6,55,37,26,29.59,29.15,0,0,0,0.00
2013-1-31,68.4,51.6,36.9,31.7,21.4,14.8,53,34,15,29.77,29.50,0,0,0,0.00
2013-2-1,60.1,47.0,34.3,34.9,23.2,13.8,57,39,30,29.85,29.59,0,0,0,0.00
2013-2-2,66.6,55.8,47.5,42.6,33.4,25.9,69,45,24,29.77,29.59,0,0,0,0.00
2013-2-3,69.8,55.0,38.8,38.2,27.3,20.1,67,39,17,29.77,29.41,0,0,0,0.00
2013-2-4,72.5,63.1,55.8,54.2,45.8,23.6,82,55,25,29.41,29.23,0,0,0,0.00
2013-2-5,69.6,62.8,59.2,61.1,57.4,51.3,96,83,60,29.47,29.32,0,0,0,0.00
2013-2-6,76.5,64.9,57.7,63.6,55.4,48.3,98,74,40,29.47,29.29,0,0,0,0.00
2013-2-7,79.5,65.8,56.3,58.4,50.3,33.7,91,62,21,29.56,29.23,0,0,0,0.00
2013-2-8,64.6,54.5,45.5,40.7,28.3,15.8,61,40,15,29.71,29.56,0,0,0,0.00
2013-2-9,60.1,52.9,49.6,59.5,45.6,30.6,98,77,47,29.59,29.18,0,0,0,0.00
2013-2-10,68.0,59.9,49.1,65.4,34.9,15.9,98,47,15,29.47,29.09,0,0,0,0.91
2013-2-11,58.3,53.6,49.8,37.6,29.5,22.4,61,40,26,29.59,29.44,0,0,0,0.00
2013-2-12,52.3,49.7,44.1,47.8,42.9,35.7,88,78,57,29.50,29.32,0,0,0,0.35
2013-2-13,63.3,48.5,40.8,41.8,31.4,25.1,73,54,29,29.62,29.47,0,0,0,0.00
2013-2-14,68.4,53.3,38.8,42.4,31.6,25.3,75,47,23,29.56,29.44,0,0,0,0.00
2013-2-15,53.2,48.8,39.6,36.2,24.1,15.2,60,38,26,29.83,29.53,0,0,0,0.00
2013-2-16,57.4,45.3,33.8,32.2,21.6,18.0,55,40,25,29.85,29.62,0,0,0,0.00
2013-2-17,71.2,55.5,39.0,42.5,30.0,23.6,62,40,19,29.62,29.35,0,0,0,0.00
2013-2-18,77.7,63.0,53.1,54.7,39.0,23.7,76,45,21,29.59,29.21,0,0,0,0.00
2013-2-19,62.2,52.6,43.0,28.5,22.9,16.4,49,32,19,29.77,29.56,0,0,0,0.00
2013-2-20,53.8,47.6,43.9,39.6,34.2,27.3,73,60,36,29.62,29.23,0,0,0,0.12
2013-2-21,68.4,54.3,44.2,48.4,35.5,17.9,92,56,15,29.38,29.06,0,0,0,0.20
2013-2-22,55.4,42.3,33.8,33.5,22.8,17.2,63,46,31,29.62,29.38,0,0,0,0.00
2013-2-23,55.9,44.2,34.3,26.0,23.5,20.8,60,45,29,29.56,29.38,0,0,0,0.00
2013-2-24,69.8,54.7,36.9,40.5,32.6,24.4,74,45,26,29.38,29.06,0,0,0,0.00
2013-2-25,62.1,53.0,42.1,49.5,35.7,23.4,75,54,28,29.15,28.91,0,0,0,0.00
2013-2-26,59.4,48.5,41.2,33.0,27.2,24.4,60,45,28,29.35,29.15,0,0,0,0.00
2013-2-27,58.1,47.9,39.4,29.9,23.3,13.5,67,41,20,29.68,29.32,0,0,0,0.00
2013-2-28,60.1,48.4,38.1,25.4,21.8,17.0,54,36,22,29.74,29.62,0,0,0,0.00
2013-3-1,57.2,46.7,36.7,27.0,23.5,19.6,54,41,28,29.74,29.62,0,0,0,0.00
2013-3-2,56.8,44.4,33.8,23.8,20.8,16.8,59,40,25,29.88,29.68,0,0,0,0.00
2013-3-3,72.3,56.4,39.2,36.7,26.7,19.6,49,33,22,29.68,29.23,0,0,0,0.00
2013-3-4,86.4,66.0,55.9,43.3,37.4,23.9,57,38,11,29.23,29.03,0,0,0,0.00
2013-3-5,63.7,52.3,44.1,38.1,20.7,11.0,51,31,17,29.83,29.23,0,0,0,0.00
2013-3-6,62.2,49.9,37.0,23.9,17.4,10.8,50,29,14,29.91,29.65,0,0,0,0.00
2013-3-7,72.3,57.9,42.4,33.8,24.3,18.3,47,29,14,29.68,29.53,0,0,0,0.00
2013-3-8,63.0,60.0,55.9,55.8,49.3,34.2,81,68,41,29.62,29.44,0,0,0,0.00
2013-3-9,70.5,65.3,61.2,65.7,59.3,53.0,92,81,72,29.44,29.09,0,0,0,1.22
2013-3-10,62.8,53.9,43.7,60.7,35.4,24.6,93,52,35,29.53,29.18,0,0,0,0.08
2013-3-11,61.9,48.4,37.6,34.0,22.4,14.4,62,39,16,29.59,29.44,0,0,0,0.00
2013-3-12,68.9,55.2,40.3,35.0,24.3,19.7,54,32,17,29.77,29.47,0,0,0,0.00
2013-3-13,71.1,57.7,43.3,35.9,30.7,26.7,64,38,23,29.88,29.74,0,0,0,0.00
2013-3-14,78.1,62.8,47.5,42.2,36.6,31.1,59,39,24,29.80,29.62,0,0,0,0.00
2013-3-15,83.1,68.7,56.5,51.5,42.7,33.4,78,44,19,29.62,29.32,0,0,0,0.00
2013-3-16,83.5,70.8,59.2,54.5,49.2,42.5,74,48,32,29.32,29.12,0,0,0,0.00
2013-3-17,74.5,68.7,60.6,59.5,50.3,41.3,78,54,34,29.23,29.12,0,0,0,0.00
2013-3-18,70.7,64.2,59.5,63.7,44.3,32.6,94,51,32,29.44,29.09,0,0,0,0.00
2013-3-19,71.1,60.6,50.2,39.7,32.8,26.3,56,36,25,29.56,29.41,0,0,0,0.00
2013-3-20,69.3,59.4,48.4,34.4,27.9,20.1,53,32,17,29.74,29.47,0,0,0,0.00
2013-3-21,71.2,63.0,55.0,56.4,38.9,24.0,71,42,28,29.47,29.00,0,0,0,0.00
2013-3-22,66.7,56.2,49.1,59.7,47.6,37.8,83,73,50,29.29,29.00,0,0,0,0.00
2013-3-23,57.0,52.7,48.6,50.2,46.0,42.4,92,78,70,29.35,29.12,0,0,0,0.08
2013-3-24,55.2,47.4,39.9,48.6,24.7,14.5,90,44,27,29.65,29.26,0,0,0,0.04
2013-3-25,56.8,46.1,35.8,20.3,15.7,9.7,46,31,17,29.85,29.62,0,0,0,0.00
2013-3-26,61.0,47.3,34.0,23.3,19.3,15.2,56,34,19,29.94,29.74,0,0,0,0.00
2013-3-27,72.3,58.5,44.1,38.2,28.3,17.4,45,32,23,29.77,29.50,0,0,0,0.00
2013-3-28,72.9,63.7,53.2,54.2,48.3,37.6,74,58,45,29.65,29.53,0,0,0,0.00
2013-3-29,79.9,69.0,61.7,55.9,53.3,50.0,78,59,36,29.62,29.44,0,0,0,0.00
2013-3-30,80.6,69.3,58.1,62.8,56.9,52.6,91,66,45,29.56,29.32,0,0,0,0.59
2013-3-31,77.0,69.0,61.9,63.2,53.5,42.1,90,61,34,29.44,29.23,0,0,0,0.00
2013-4-1,81.3,67.4,53.6,53.9,44.9,35.9,80,49,21,29.53,29.38,0,0,0,0.00
2013-4-2,70.0,66.4,55.9,62.3,56.2,38.4,85,70,50,29.47,29.35,0,0,0,0.08
2013-4-3,56.3,50.8,46.2,49.3,45.1,38.9,91,81,54,29.62,29.38,0,0,0,0.87
2013-4-4,53.2,48.2,44.2,42.4,38.8,35.7,87,71,53,29.65,29.56,0,0,0,0.04
2013-4-5,71.6,56.7,42.3,45.8,40.2,35.2,79,57,33,29.71,29.47,0,0,0,0.00
2013-4-6,77.9,66.4,56.7,55.0,48.5,39.9,69,54,40,29.47,29.26,0,0,0,0.00
2013-4-7,74.7,68.6,63.1,59.6,57.3,54.1,79,68,56,29.35,29.18,0,0,0,0.00
2013-4-8,77.7,71.8,66.6,62.7,59.9,56.1,76,66,57,29.21,29.09,0,0,0,0.00
2013-4-9,81.9,75.2,69.1,65.6,61.8,59.1,81,64,47,29.15,29.06,0,0,0,0.00
2013-4-10,74.8,49.8,42.1,65.8,40.4,30.9,83,70,43,29.44,29.15,0,0,0,0.16
2013-4-11,65.8,52.1,42.8,36.5,29.4,23.8,62,43,25,29.44,29.26,0,0,0,0.00
2013-4-12,79.5,62.2,45.7,42.9,38.6,34.9,73,45,21,29.44,29.29,0,0,0,0.00
2013-4-13,80.6,68.7,55.8,47.8,42.6,37.9,68,40,24,29.44,29.23,0,0,0,0.00
2013-4-14,85.8,71.5,57.9,62.6,54.4,44.4,77,56,41,29.23,28.97,0,0,0,0.00
2013-4-15,90.1,78.2,69.6,65.9,63.0,58.3,87,62,35,29.21,29.06,0,0,0,0.00
2013-4-16,90.1,79.2,71.8,66.5,62.5,59.2,79,59,37,29.35,29.21,0,0,0,0.00
2013-4-17,88.2,78.6,73.0,70.2,65.3,60.6,89,65,42,29.32,29.06,0,0,0,0.00
2013-4-18,77.0,74.8,66.0,71.0,68.5,51.9,89,81,53,29.15,29.00,0,0,0,0.16
2013-5-21,68.9,66.0,63.5,59.2,57.9,56.2,79,75,69,29.32,29.23,0,0,0,0.00
2013-5-22,90.1,72.3,57.6,63.1,54.7,42.8,88,59,20,29.41,29.29,0,0,0,0.00
2013-5-23,89.6,79.1,70.5,72.3,66.7,58.8,94,67,45,29.50,29.32,0,0,0,0.00
2013-5-24,87.4,78.8,69.8,72.3,67.3,58.2,85,69,49,29.65,29.44,0,0,0,0.08
2013-5-25,85.5,74.4,68.7,73.4,66.9,63.8,91,79,53,29.62,29.47,0,0,0,0.24
2013-5-26,90.1,79.6,72.7,73.9,68.0,63.7,91,70,43,29.53,29.35,0,0,0,0.04
2013-5-27,89.4,79.9,72.5,67.3,65.2,61.8,80,62,42,29.44,29.23,0,0,0,0.00
2013-5-28,87.6,80.3,73.2,67.3,63.7,59.6,78,58,42,29.32,29.21,0,0,0,0.00
2013-5-29,87.3,77.7,73.6,71.7,67.8,65.8,90,72,52,29.26,29.15,0,0,0,0.28
2013-5-30,91.4,81.4,74.5,71.2,68.3,64.6,84,66,43,29.23,29.12,0,0,0,0.04
2013-5-31,93.6,83.7,77.4,72.2,69.5,64.0,80,64,41,29.29,29.12,0,0,0,0.00
2013-6-1,91.8,81.2,75.0,71.8,68.6,57.3,81,66,47,29.38,29.15,0,0,0,0.04
2013-6-2,88.3,76.7,67.6,68.3,52.6,39.9,80,47,20,29.53,29.38,0,0,0,0.00
2013-6-3,94.1,78.4,64.0,60.2,54.0,46.7,77,47,21,29.44,29.26,0,0,0,0.00
2013-6-4,95.7,83.0,72.7,65.9,61.9,55.2,74,51,31,29.44,29.21,0,0,0,0.00
2013-6-5,95.0,83.5,75.0,69.2,63.6,57.0,75,53,31,29.38,29.21,0,0,0,0.00
2013-6-6,79.5,74.9,71.2,70.4,67.1,63.6,89,77,62,29.38,29.26,0,0,0,0.59
2013-6-12,98.2,90.0,77.5,72.1,64.9,58.7,82,45,29,29.50,29.35,0,0,0,0.35
2013-6-13,101.7,88.2,76.5,70.2,64.1,58.4,73,48,25,29.50,29.32,0,0,0,0.00
2013-6-14,99.7,87.0,75.7,70.3,65.4,58.6,73,51,28,29.44,29.32,0,0,0,0.00
2013-6-15,92.5,84.0,75.6,72.7,69.3,63.6,86,63,45,29.44,29.32,0,0,0,0.08
2013-6-16,99.9,85.4,75.4,72.1,67.6,59.5,83,59,27,29.47,29.35,0,0,0,0.00
2013-6-17,96.6,86.0,71.2,74.3,70.2,64.3,91,61,37,29.44,29.29,0,0,0,0.00
2013-6-18,89.8,78.9,71.1,72.9,68.1,62.3,88,71,41,29.47,29.32,0,0,0,0.16
2013-6-19,96.4,82.0,71.1,73.6,68.0,61.3,90,65,38,29.44,29.29,0,0,0,0.00
2013-6-20,97.9,86.3,77.0,71.2,65.3,57.5,78,53,28,29.50,29.35,0,0,0,0.00
2013-6-21,99.3,87.8,77.5,72.8,63.9,56.4,78,48,26,29.50,29.38,0,0,0,0.00
2013-6-22,100.0,87.6,76.1,70.9,63.4,56.5,76,47,27,29.47,29.29,0,0,0,0.00
2013-6-23,99.0,87.8,78.1,70.4,63.6,56.6,76,47,27,29.44,29.32,0,0,0,0.00
2013-6-24,99.9,87.9,77.4,70.6,63.4,56.0,77,47,26,29.47,29.32,0,0,0,0.00
2013-6-25,100.6,88.9,78.4,70.7,62.9,55.3,74,45,25,29.44,29.26,0,0,0,0.00
2013-6-26,101.8,89.2,77.9,69.4,64.8,58.6,75,47,28,29.41,29.29,0,0,0,0.00
2013-6-27,103.5,90.7,79.7,71.7,64.6,55.9,72,45,23,29.47,29.29,0,0,0,0.00
2013-6-28,105.8,89.0,78.8,64.5,60.2,50.8,59,41,17,29.38,29.26,0,0,0,0.00
2013-6-29,101.3,87.8,75.9,69.3,57.9,44.4,72,41,15,29.35,29.23,0,0,0,0.00
2013-6-30,95.9,84.5,74.8,63.8,52.5,43.7,67,36,18,29.38,29.26,0,0,0,0.00
2013-7-1,91.9,80.3,70.0,58.3,51.2,43.4,64,39,20,29.47,29.38,0,0,0,0.00
2013-7-2,93.4,79.9,67.5,57.2,48.1,39.6,65,37,16,29.53,29.44,0,0,0,0.00
2013-7-3,95.9,79.7,65.7,59.0,48.0,31.0,70,39,11,29.50,29.38,0,0,0,0.00
2013-7-4,99.3,84.8,72.3,60.9,52.1,37.9,62,36,13,29.44,29.32,0,0,0,0.00
2013-7-5,100.9,87.2,74.1,63.3,53.1,42.3,62,34,15,29.44,29.29,0,0,0,0.00
2013-7-6,100.4,85.6,75.4,64.8,57.5,49.2,61,41,19,29.38,29.32,0,0,0,0.00
2013-7-11,106.7,91.6,82.4,68.8,63.7,52.3,61,42,17,29.41,29.32,0,0,0,0.00
2013-7-12,105.1,90.3,76.8,70.8,63.0,50.6,77,45,17,29.41,29.29,0,0,0,0.00
2013-7-13,104.9,91.5,81.3,67.9,60.8,51.2,63,39,18,29.44,29.29,0,0,0,0.00
2013-7-14,85.3,75.5,71.1,69.9,62.8,50.3,89,68,31,29.47,29.32,0,0,0,0.28
2013-7-15,71.2,70.4,69.8,67.8,67.2,66.6,91,90,89,29.44,29.41,0,0,0,0.24
2013-7-20,99.7,86.6,80.2,69.3,65.8,58.9,69,52,27,29.35,29.29,0,0,0,0.20
2013-7-21,99.5,86.5,75.9,72.9,67.3,58.7,83,56,29,29.38,29.26,0,0,0,0.00
2013-7-22,101.3,88.8,78.3,73.7,67.9,59.7,85,54,28,29.41,29.29,0,0,0,0.00
2013-7-23,101.8,90.0,79.9,73.3,67.1,57.4,78,49,29,29.41,29.26,0,0,0,0.00
2013-7-24,99.5,87.3,78.3,70.3,64.6,57.2,68,49,26,29.50,29.29,0,0,0,0.00
2013-7-25,99.0,87.1,76.8,71.6,66.8,60.5,72,53,30,29.50,29.41,0,0,0,0.00
2013-7-26,99.0,85.3,79.0,77.1,69.5,63.2,85,61,32,29.47,29.29,0,0,0,0.12
2013-7-27,94.8,82.8,74.5,70.7,61.9,52.2,75,52,25,29.47,29.35,0,0,0,0.00
2013-7-28,97.2,83.4,70.3,69.5,63.2,57.5,81,54,28,29.44,29.29,0,0,0,0.00
2013-7-29,99.9,88.1,79.0,73.2,66.0,54.4,78,52,27,29.44,29.35,0,0,0,0.00
2013-7-30,102.6,89.8,79.5,70.9,63.4,55.2,72,44,26,29.53,29.38,0,0,0,0.00
2013-7-31,104.9,91.5,80.6,69.0,62.4,57.5,63,40,24,29.50,29.32,0,0,0,0.00
2013-8-1,104.9,92.3,80.2,72.9,64.9,53.6,72,44,19,29.44,29.32,0,0,0,0.00
2013-8-2,106.5,93.5,81.5,67.7,60.9,50.7,63,37,16,29.38,29.29,0,0,0,0.00
2013-8-3,105.4,92.0,81.1,68.5,60.2,50.0,63,37,17,29.44,29.35,0,0,0,0.00
2013-8-4,105.6,92.3,81.5,70.8,62.3,50.8,68,40,17,29.50,29.35,0,0,0,0.00
2013-8-5,106.3,92.9,81.7,68.1,59.4,49.8,63,36,16,29.44,29.26,0,0,0,0.00
2013-8-6,107.6,93.2,80.8,68.4,58.3,46.7,65,35,15,29.35,29.23,0,0,0,0.00
2013-8-7,108.9,93.7,81.1,69.2,60.0,49.3,65,36,15,29.32,29.18,0,0,0,0.00
2013-8-8,104.2,90.0,81.9,70.3,60.3,50.5,67,41,17,29.32,29.21,0,0,0,0.00
2013-8-9,106.7,91.8,82.0,69.3,59.3,45.7,62,37,15,29.41,29.26,0,0,0,0.00
2013-8-10,100.6,88.3,78.1,74.1,65.9,57.3,82,51,27,29.50,29.38,0,0,0,0.00
2013-8-11,105.8,90.3,77.5,68.7,62.4,51.6,70,43,17,29.50,29.38,0,0,0,0.00
2013-8-12,103.3,91.2,80.1,69.6,62.8,55.2,68,42,21,29.50,29.35,0,0,0,0.00
2013-8-13,102.0,87.2,78.4,73.9,65.1,58.6,83,51,26,29.44,29.32,0,0,0,0.28
2013-8-14,92.8,80.7,75.4,77.9,72.4,66.2,94,77,42,29.47,29.38,0,0,0,0.87
2013-8-15,92.5,80.4,73.6,69.5,62.0,55.2,82,56,32,29.53,29.38,0,0,0,0.00
2013-8-16,91.2,79.3,70.7,68.5,60.9,56.2,86,56,32,29.50,29.41,0,0,0,0.04
2013-8-17,92.8,79.2,67.8,60.8,55.2,48.4,74,47,23,29.56,29.41,0,0,0,0.00
2013-8-18,93.6,80.4,68.5,63.9,57.6,51.8,74,49,26,29.56,29.44,0,0,0,0.00
2013-8-19,96.1,80.0,70.9,64.6,59.1,47.8,72,53,20,29.50,29.41,0,0,0,0.00
2013-8-21,96.6,90.8,81.7,63.0,58.4,54.7,52,34,27,29.50,29.41,0,0,0,0.00
2013-8-22,100.9,88.9,77.5,70.2,62.5,56.1,69,44,24,29.53,29.35,0,0,0,0.00
2013-8-23,101.8,90.3,80.1,71.0,62.2,51.2,67,42,19,29.47,29.32,0,0,0,0.00
2013-8-24,102.0,89.4,78.4,68.5,61.4,48.9,66,42,17,29.50,29.38,0,0,0,0.00
2013-8-25,100.0,88.8,78.3,68.0,61.2,51.2,65,42,21,29.59,29.47,0,0,0,0.00
2013-8-26,98.4,87.0,77.9,68.4,61.7,50.5,70,45,21,29.62,29.47,0,0,0,0.00
2013-8-27,95.7,83.8,75.6,69.6,65.3,57.0,79,56,28,29.56,29.47,0,0,0,0.00
2013-8-28,100.9,86.3,73.6,69.9,60.9,49.5,75,47,19,29.56,29.41,0,0,0,0.00
2013-8-29,103.8,88.8,75.7,66.8,58.9,47.6,68,40,16,29.53,29.38,0,0,0,0.00
2013-8-30,104.4,89.8,76.6,65.7,57.1,44.4,65,38,15,29.44,29.29,0,0,0,0.00
2013-8-31,106.2,91.7,80.4,65.0,56.2,46.8,58,34,14,29.35,29.21,0,0,0,0.00
2013-9-1,106.3,93.0,81.5,65.1,58.0,46.8,55,34,14,29.32,29.21,0,0,0,0.00
2013-9-2,91.4,83.9,78.6,76.6,69.2,63.8,85,63,42,29.47,29.29,0,0,0,0.08
2013-9-3,100.0,86.0,74.5,70.9,60.6,44.8,74,47,17,29.44,29.32,0,0,0,0.00
2013-9-4,101.1,87.2,74.3,68.8,59.6,49.3,71,43,19,29.47,29.38,0,0,0,0.00
2013-9-5,101.5,88.8,77.0,69.4,60.8,48.2,72,43,17,29.53,29.41,0,0,0,0.00
2013-9-6,102.7,89.0,77.0,68.8,58.6,47.6,69,39,16,29.53,29.38,0,0,0,0.00
2013-9-7,101.3,88.8,79.2,69.1,59.2,46.1,68,41,16,29.47,29.35,0,0,0,0.00
2013-9-8,99.3,86.2,73.9,68.4,60.0,50.5,73,45,22,29.44,29.29,0,0,0,0.00
2013-9-9,98.1,86.4,75.7,68.1,60.8,54.5,70,45,26,29.44,29.35,0,0,0,0.00
2013-9-10,95.9,84.9,77.2,70.0,61.3,46.2,75,48,19,29.53,29.41,0,0,0,0.00
2013-9-11,98.4,84.0,74.5,69.7,62.3,56.8,73,50,26,29.56,29.44,0,0,0,0.00
2013-9-12,97.3,85.4,74.3,67.5,61.5,55.3,73,47,26,29.53,29.35,0,0,0,0.00
2013-9-13,99.1,86.5,76.1,68.3,62.5,54.1,73,47,24,29.41,29.26,0,0,0,0.00
2013-9-14,96.4,85.6,77.0,63.4,56.8,53.5,52,39,25,29.41,29.29,0,0,0,0.00
2013-9-15,98.2,86.3,76.5,64.4,58.1,54.3,52,39,27,29.47,29.38,0,0,0,0.00
2013-9-16,98.6,87.2,76.1,69.5,58.9,47.2,69,41,19,29.53,29.41,0,0,0,0.00
2013-9-17,95.9,86.3,78.3,67.7,60.1,55.0,63,43,27,29.53,29.38,0,0,0,0.00
2013-9-18,99.1,87.8,78.3,68.7,58.9,46.3,65,40,17,29.47,29.29,0,0,0,0.00
2013-9-19,92.3,84.1,74.8,70.4,65.2,57.7,84,55,37,29.44,29.29,0,0,0,1.18
2013-9-20,75.9,74.1,70.5,73.1,70.2,62.6,96,88,76,29.38,29.29,0,0,0,1.38
2013-9-21,84.6,72.6,63.9,62.6,47.9,36.5,76,46,20,29.44,29.29,0,0,0,0.00
2013-9-22,84.4,70.7,59.0,58.3,49.2,40.2,83,51,22,29.38,29.23,0,0,0,0.00
2013-9-23,87.6,73.1,59.7,56.5,49.1,38.8,77,47,19,29.32,29.21,0,0,0,0.00
2013-9-24,92.7,77.2,65.7,64.6,53.0,39.0,81,49,17,29.38,29.26,0,0,0,0.00
2013-9-25,93.6,77.4,63.9,56.2,47.3,36.1,66,39,14,29.35,29.21,0,0,0,0.00
2013-9-26,94.8,81.9,69.1,56.9,48.4,42.1,59,33,17,29.32,29.23,0,0,0,0.00
2013-9-27,89.1,81.1,72.7,69.4,63.3,52.8,71,55,41,29.38,29.26,0,0,0,0.00
2013-9-28,87.3,77.5,68.9,78.3,69.3,61.0,87,76,59,29.50,29.29,0,0,0,0.63
2013-9-29,82.4,72.1,65.5,61.2,52.1,38.7,76,53,23,29.50,29.35,0,0,0,0.00
2013-9-30,87.1,72.9,60.1,59.8,51.9,40.9,81,53,20,29.38,29.26,0,0,0,0.00
2013-10-1,88.7,76.5,65.1,70.7,62.6,54.6,94,65,32,29.38,29.26,0,0,0,0.00
2013-10-2,90.7,80.3,73.6,71.5,67.6,61.9,91,67,40,29.44,29.29,0,0,0,0.00
2013-10-3,92.1,81.7,75.0,72.0,67.3,60.5,87,64,37,29.38,29.23,0,0,0,0.00
2013-10-4,90.0,81.2,74.1,70.0,65.9,60.3,86,62,38,29.35,29.26,0,0,0,0.00
2013-10-5,80.1,67.1,56.5,69.3,54.2,36.5,80,64,39,29.56,29.29,0,0,0,0.12
2013-10-6,75.0,62.0,51.4,50.9,38.6,19.6,82,50,13,29.59,29.47,0,0,0,0.04
2013-10-7,80.4,64.0,50.5,49.5,40.1,28.1,75,47,15,29.62,29.50,0,0,0,0.00
2013-10-8,81.5,66.4,52.2,50.9,42.3,34.7,76,46,20,29.56,29.44,0,0,0,0.00
2013-10-9,83.7,73.9,62.6,52.9,48.7,44.1,64,42,26,29.53,29.41,0,0,0,0.00
2013-10-10,83.8,73.0,62.4,61.4,55.1,50.5,83,55,34,29.50,29.32,0,0,0,0.00
2013-10-11,86.9,77.6,70.3,68.3,64.9,58.0,80,66,47,29.38,29.26,0,0,0,0.00
2013-10-12,90.9,78.6,71.4,73.4,69.5,59.6,89,75,39,29.53,29.32,0,0,0,0.43
2013-10-13,75.9,72.2,69.3,68.8,66.4,64.9,91,82,72,29.65,29.50,0,0,0,0.00
2013-10-14,74.7,72.1,70.2,73.6,69.9,65.3,98,93,80,29.59,29.35,0,0,0,0.59
2013-10-15,77.4,67.8,55.9,73.0,63.5,52.1,92,86,72,29.53,29.35,0,0,0,0.55
2013-10-16,66.0,59.9,54.7,54.1,47.8,41.1,90,67,41,29.56,29.47,0,0,0,0.24
2013-10-17,71.6,60.0,49.1,51.2,42.7,36.3,75,55,28,29.59,29.44,0,0,0,0.00
2013-10-18,70.7,61.6,54.0,54.2,48.6,42.0,84,64,37,29.56,29.35,0,0,0,0.00
2013-10-19,65.7,54.6,45.0,45.6,37.1,31.2,72,54,28,29.68,29.53,0,0,0,0.00
2013-10-20,72.0,58.3,44.8,44.0,38.6,33.8,79,51,25,29.53,29.32,0,0,0,0.00
2013-10-21,72.5,61.6,55.4,58.0,49.1,43.4,83,64,50,29.56,29.35,0,0,0,0.00
2013-10-22,74.5,60.0,46.8,45.7,40.1,31.2,75,52,24,29.62,29.47,0,0,0,0.00
2013-10-23,80.2,64.4,50.7,51.4,43.9,38.5,77,51,23,29.59,29.47,0,0,0,0.00
2013-10-24,77.7,65.7,54.0,50.0,44.2,38.9,71,48,28,29.74,29.50,0,0,0,0.00
2013-10-25,69.8,61.0,54.0,45.2,41.5,38.0,67,49,35,29.85,29.68,0,0,0,0.00
2013-10-26,77.5,65.7,58.5,59.9,53.5,44.6,87,65,50,29.68,29.47,0,0,0,0.79
2013-10-27,69.8,64.7,61.5,61.2,57.2,54.0,89,77,58,29.59,29.47,0,0,0,0.00
2013-10-28,76.8,67.7,57.9,65.2,60.5,52.1,93,78,64,29.56,29.44,0,0,0,0.00
2013-10-29,77.0,72.5,69.3,67.8,66.7,64.9,90,82,72,29.53,29.44,0,0,0,0.00
2013-10-30,72.7,70.4,67.6,70.3,66.6,64.2,97,88,81,29.47,29.26,0,0,0,0.04
2013-10-31,73.8,68.4,57.4,69.6,50.5,31.7,98,60,22,29.32,29.15,0,0,0,0.00
2013-11-1,74.1,61.9,49.8,50.6,43.0,36.8,81,53,32,29.53,29.26,0,0,0,0.00
2013-11-2,67.1,57.5,49.3,56.3,36.3,27.0,98,48,24,29.74,29.53,0,0,0,0.00
2013-11-3,67.6,55.7,44.6,43.4,37.2,32.3,74,53,29,29.68,29.44,0,0,0,0.00
2013-11-4,62.1,59.7,56.7,60.4,53.2,43.4,96,80,55,29.56,29.44,0,0,0,0.71
2013-11-5,70.2,66.1,61.5,68.7,64.8,60.4,98,96,85,29.50,29.38,0,0,0,0.24
2013-11-6,70.7,57.2,46.6,68.5,46.8,37.1,94,69,44,29.83,29.41,0,0,0,0.16
2013-11-7,64.0,51.3,41.4,42.5,36.5,28.2,78,60,28,29.94,29.83,0,0,0,0.16
2013-11-8,66.2,55.9,44.2,48.7,38.5,33.1,83,55,32,29.83,29.59,0,0,0,0.16
2013-11-9,70.0,62.1,57.0,49.5,44.6,39.2,61,53,45,29.68,29.56,0,0,0,0.16
2013-11-10,66.4,59.5,52.2,49.8,45.7,42.1,74,61,46,29.80,29.65,0,0,0,0.00
2013-11-11,71.6,58.8,48.0,52.7,46.6,41.3,82,66,41,29.74,29.62,0,0,0,0.00
2013-11-12,61.5,51.1,40.1,56.0,30.1,14.6,83,48,23,30.15,29.74,0,0,0,0.16
2013-11-13,52.2,42.2,33.3,29.9,20.5,15.1,61,43,27,30.15,29.83,0,0,0,0.16
2013-11-14,60.3,52.7,34.5,43.8,30.6,22.9,64,45,24,29.83,29.47,0,0,0,0.00
2013-11-15,71.6,61.9,53.2,57.8,50.1,43.5,87,67,42,29.47,29.29,0,0,0,0.00
2013-11-16,78.3,70.3,63.5,68.4,61.6,57.9,89,75,52,29.29,29.12,0,0,0,0.00
2013-11-17,84.4,73.8,62.4,69.2,53.6,32.3,93,56,19,29.47,29.15,0,0,0,0.00
2013-11-18,69.6,63.8,56.7,31.7,26.6,21.0,38,25,17,29.62,29.47,0,0,0,0.00
2013-11-19,68.5,62.0,57.0,34.6,30.2,25.5,39,31,22,29.62,29.47,0,0,0,0.00
2013-11-20,66.4,59.5,51.8,53.0,39.1,29.4,70,47,37,29.47,29.32,0,0,0,0.00
2013-11-21,74.3,64.9,44.2,68.5,60.4,38.0,96,86,63,29.68,29.38,0,0,0,0.08
2013-11-22,44.2,38.4,36.3,38.0,32.7,29.4,87,80,72,29.91,29.68,0,0,0,0.08
2013-11-23,49.1,40.0,37.2,45.7,31.7,22.6,93,73,51,30.00,29.88,0,0,0,0.04
2013-11-24,50.7,37.9,35.1,34.2,20.6,15.8,64,50,38,30.03,29.80,0,0,0,0.00
2013-11-25,42.3,38.4,35.6,36.2,31.2,21.5,80,75,50,29.80,29.59,0,0,0,0.59
2013-11-26,52.5,43.2,37.2,33.5,27.9,19.1,85,58,33,29.83,29.59,0,0,0,0.00
2013-11-27,46.8,38.4,32.7,19.9,15.9,10.6,56,41,27,29.91,29.80,0,0,0,0.00
2013-11-28,53.2,40.5,29.5,27.3,22.0,18.5,69,49,27,29.88,29.80,0,0,0,0.00
2013-11-29,57.9,44.2,31.1,40.0,28.5,21.4,77,55,35,29.97,29.80,0,0,0,0.00
2013-11-30,66.2,60.4,55.0,50.5,46.9,41.4,83,62,47,29.77,29.59,0,0,0,0.00
2013-12-1,69.3,60.4,52.7,57.9,52.4,47.4,95,76,55,29.62,29.35,0,0,0,0.00
2013-12-2,68.0,55.0,44.2,48.8,42.1,37.2,82,64,42,29.35,29.12,0,0,0,0.00
2013-12-3,72.0,56.1,43.0,44.8,36.4,29.9,81,52,22,29.12,28.97,0,0,0,0.00
2013-12-4,75.9,62.0,50.7,46.0,40.7,30.7,62,47,32,29.35,29.03,0,0,0,0.00
2013-12-5,50.7,37.0,31.6,31.2,21.9,13.8,84,56,40,29.62,29.35,0,0,0,0.00
2013-12-6,34.0,31.5,29.1,30.1,27.3,24.1,86,84,82,29.62,29.59,0,0,0,0.12
2013-12-7,30.2,27.8,25.3,23.2,18.8,13.2,76,69,59,29.97,29.71,0,0,0,0.00
2013-12-8,44.4,33.4,28.9,34.4,26.0,21.8,81,74,52,29.71,29.50,0,0,0,0.08
2013-12-9,36.0,34.4,31.1,29.9,24.2,14.8,83,67,49,29.85,29.59,0,0,0,0.04
2013-12-10,38.3,30.8,23.5,18.7,14.1,9.2,59,50,39,29.97,29.80,0,0,0,0.20
2013-12-11,47.8,38.2,28.8,29.0,22.7,17.3,67,54,40,30.03,29.77,0,0,0,0.12
2013-12-12,48.4,39.4,29.7,32.5,25.2,19.7,69,57,42,30.06,29.74,0,0,0,0.00
2013-12-13,47.8,45.4,43.0,47.3,36.9,27.2,98,73,53,29.77,29.23,0,0,0,0.00
2013-12-14,48.0,42.7,34.7,47.5,33.3,22.0,98,71,46,29.77,29.23,0,0,0,0.00
2013-12-15,58.5,43.6,30.0,31.2,25.1,20.8,71,51,27,29.80,29.65,0,0,0,0.00
2013-12-16,63.9,50.4,38.1,39.8,30.5,27.7,68,48,27,29.68,29.56,0,0,0,0.00
2013-12-17,67.3,51.4,38.7,34.3,31.0,27.5,68,48,24,29.74,29.65,0,0,0,0.00
2013-12-18,68.2,53.6,38.1,44.9,36.2,29.0,75,54,28,29.71,29.44,0,0,0,0.00
2013-12-19,72.0,63.2,54.7,60.9,52.9,44.7,84,70,49,29.44,29.18,0,0,0,0.00
2013-12-20,68.5,56.7,36.7,62.4,50.3,32.8,87,79,59,29.29,29.21,0,0,0,0.00
2013-12-21,55.0,45.5,36.3,53.9,42.0,32.5,96,88,83,29.23,29.00,0,0,0,1.30
2013-12-22,46.6,39.3,33.6,44.4,26.9,20.3,95,62,44,29.85,29.21,0,0,0,0.00
2013-12-23,46.4,37.0,29.3,27.7,22.6,20.1,70,57,38,30.00,29.83,0,0,0,0.00
2013-12-24,52.2,40.7,29.5,29.8,25.2,19.9,69,55,38,30.00,29.71,0,0,0,0.00
2013-12-25,57.9,45.7,37.8,38.6,30.7,24.1,71,56,36,29.85,29.71,0,0,0,0.00
2013-12-26,52.5,41.9,33.3,31.1,27.4,24.5,73,58,36,29.88,29.77,0,0,0,0.00
2013-12-27,57.7,44.6,33.6,34.9,29.5,24.9,74,57,35,29.88,29.77,0,0,0,0.00
2013-12-28,59.9,48.4,36.3,39.8,32.9,27.8,77,56,36,29.77,29.41,0,0,0,0.00
2013-12-29,50.2,41.3,32.9,39.3,29.3,19.4,75,62,49,29.74,29.38,0,0,0,0.00
2013-12-30,43.3,36.1,31.3,19.2,15.2,11.6,55,43,31,29.85,29.71,0,0,0,0.00
2013-12-31,53.6,40.5,29.1,23.8,20.6,16.5,63,46,29,29.88,29.65,0,0,0,0.00
2014-1-1,67.6,49.3,35.4,45.6,30.2,19.8,67,49,30,29.68,29.29,0,0,0,0.00
2014-1-2,42.6,33.9,26.4,19.9,14.0,10.4,55,44,31,29.94,29.68,0,0,0,0.00